OIMN

Details ICAO OIMN (BJB)
Name BOJNORD
Region Iran
Timezone Asia/Tehran (UTC+3.5)
Plans Departing 14
Arriving 3
Stats Elevation 3,499 ft / 1,066 m (AMSL)
Location 37.492957° 57.308219°
Runways 1
Magnetic Variation 4.896° E
Sunrise 2017-12-15 03:19:27 UTC / 2017-12-15 06:49:27 Local
Sunset 2017-12-15 12:55:01 UTC / 2017-12-15 16:25:01 Local
Advertisement - Login to hide

Runways

ID Width Length Bearing (true) Bearing (mag) Surface Threshold Offset Overrun Length
07 148 ft / 45 m 10,565 ft / 3,220 m 70.19° 65.29° Asphalt 1,957 ft / 596 m 150 ft / 46 m
25 148 ft / 45 m 10,565 ft / 3,220 m 250.21° 245.31° Asphalt 0 ft / 0 m 0 ft / 0 m

Map

Weather


0- 5 10 15 20 25 30 35+ Temperature / ° C

Clouds and Precipitation
Forecast for 2017-12-16 00:00 UTC. Updated 37 minutes ago

Ground ~20,000 ft ~40,000 ft Winds

METAR

OIMN 151900Z 00000KT CAVOK M01/M01 Q1022

TAF

Not found

Frequencies

Tower 121.90 MHz INFO
Tower 118.20 MHz INFO
Warning: Do not use this data for real-world aviation or navigation. No guarantee of current accuracy is given.